createdAt,value
2019-05-07T00:01:16.475Z,9.33
2019-05-07T00:03:46.258Z,9.10
2019-05-07T00:06:15.890Z,9.90
2019-05-07T00:08:45.910Z,9.90
2019-05-07T00:11:15.724Z,10.90
2019-05-07T00:13:45.457Z,11.97
2019-05-07T00:16:14.867Z,12.27
2019-05-07T00:18:44.607Z,12.20
2019-05-07T00:21:14.398Z,12.40
2019-05-07T00:23:44.112Z,12.40
2019-05-07T00:26:13.972Z,13.73
2019-05-07T00:28:43.725Z,12.93
2019-05-07T00:31:13.669Z,13.13
2019-05-07T00:33:43.526Z,14.33
2019-05-07T00:36:35.121Z,14.17
2019-05-07T00:39:27.908Z,14.20
2019-05-07T00:42:16.258Z,14.73
2019-05-07T00:45:15.851Z,14.97
2019-05-07T00:47:33.015Z,14.57
2019-05-07T00:50:07.559Z,15.60
2019-05-07T00:52:36.985Z,14.97
2019-05-07T00:55:06.923Z,14.60
2019-05-07T00:57:36.740Z,15.80
2019-05-07T01:00:07.125Z,14.67
2019-05-07T01:02:36.898Z,14.73
2019-05-07T01:05:06.676Z,14.40
2019-05-07T01:07:36.493Z,15.40
2019-05-07T01:10:06.999Z,14.90
2019-05-07T01:12:36.489Z,15.37
2019-05-07T01:15:06.684Z,14.43
2019-05-07T01:17:36.353Z,14.57
2019-05-07T01:20:06.704Z,14.63
2019-05-07T01:22:36.240Z,14.20
2019-05-07T01:25:06.369Z,14.80
2019-05-07T01:27:36.100Z,14.13
2019-05-07T01:30:06.300Z,14.33
2019-05-07T01:33:02.640Z,13.90
2019-05-07T01:35:49.422Z,14.47
2019-05-07T01:38:19.708Z,14.70
2019-05-07T01:40:49.228Z,12.60
2019-05-07T01:43:18.702Z,13.07
2019-05-07T01:45:49.901Z,12.13
2019-05-07T01:48:22.861Z,11.67
2019-05-07T01:50:52.560Z,11.40
2019-05-07T01:53:22.807Z,10.93
2019-05-07T01:55:52.827Z,10.43
2019-05-07T01:58:22.544Z,9.90
2019-05-07T02:00:53.221Z,9.30
2019-05-07T02:03:29.051Z,10.07
2019-05-07T02:06:02.947Z,9.53
2019-05-07T02:08:54.772Z,8.77
2019-05-07T02:11:30.079Z,8.43
2019-05-07T02:14:01.919Z,7.77
2019-05-07T02:16:32.693Z,8.20
2019-05-07T02:19:02.581Z,8.17
2019-05-07T02:21:32.932Z,8.53
2019-05-07T02:24:03.359Z,8.07
2019-05-07T02:26:32.982Z,8.50
2019-05-07T02:29:02.998Z,7.50
2019-05-07T02:31:33.760Z,7.63
2019-05-07T02:34:03.885Z,7.60
2019-05-07T02:36:34.286Z,6.87
2019-05-07T02:39:16.587Z,7.67
2019-05-07T02:41:46.307Z,7.27
2019-05-07T02:44:16.033Z,8.10
2019-05-07T02:46:52.761Z,6.80
2019-05-07T02:49:44.701Z,7.50
2019-05-07T02:52:35.795Z,6.57
2019-05-07T02:55:14.976Z,6.77
2019-05-07T02:57:44.801Z,6.10
2019-05-07T03:00:19.134Z,6.60
2019-05-07T03:02:46.661Z,5.13
2019-05-07T03:05:16.340Z,3.97
2019-05-07T03:07:46.275Z,4.23
2019-05-07T03:10:16.228Z,4.90
2019-05-07T03:12:45.713Z,5.00
2019-05-07T03:15:15.763Z,4.93
2019-05-07T03:17:45.662Z,4.67
2019-05-07T03:20:22.807Z,5.27
2019-05-07T03:22:53.800Z,5.17
2019-05-07T03:25:27.263Z,4.97
2019-05-07T03:27:56.865Z,4.30
2019-05-07T03:30:45.564Z,6.10
2019-05-07T03:33:26.656Z,4.70
2019-05-07T03:35:57.575Z,3.90
2019-05-07T03:38:27.441Z,4.20
2019-05-07T03:40:56.854Z,4.90
2019-05-07T03:43:27.168Z,4.90
2019-05-07T03:46:17.337Z,4.57
2019-05-07T03:48:47.943Z,3.90
2019-05-07T03:51:17.645Z,3.93
2019-05-07T03:53:47.443Z,3.80
2019-05-07T03:56:17.094Z,3.57
2019-05-07T03:58:46.600Z,4.40
2019-05-07T04:01:16.449Z,4.00
2019-05-07T04:03:46.226Z,3.70
2019-05-07T04:06:15.960Z,4.10
2019-05-07T04:08:45.478Z,13.97
2019-05-07T04:11:15.213Z,4.77
2019-05-07T04:13:44.959Z,10.47
2019-05-07T04:16:14.681Z,4.00
2019-05-07T04:18:44.323Z,3.67
2019-05-07T04:21:14.434Z,4.00
2019-05-07T04:23:44.303Z,3.50
2019-05-07T04:26:36.106Z,3.87
2019-05-07T04:29:08.135Z,3.70
2019-05-07T04:31:43.447Z,4.07
2019-05-07T04:34:23.782Z,4.17
2019-05-07T04:36:53.720Z,4.00
2019-05-07T04:39:23.564Z,3.83
2019-05-07T04:41:53.337Z,3.33
2019-05-07T04:44:23.707Z,3.40
2019-05-07T04:46:53.645Z,3.70
2019-05-07T04:49:24.056Z,3.70
2019-05-07T04:52:04.028Z,4.20
2019-05-07T04:54:34.017Z,3.20
2019-05-07T04:57:03.866Z,2.80
2019-05-07T04:59:33.703Z,3.10
2019-05-07T05:02:13.519Z,3.03
2019-05-07T05:04:43.930Z,2.97
2019-05-07T05:07:13.915Z,2.97
2019-05-07T05:09:43.602Z,3.03
2019-05-07T05:12:13.310Z,2.80
2019-05-07T05:14:43.786Z,2.60
2019-05-07T05:17:13.867Z,2.60
2019-05-07T05:19:43.966Z,2.40
2019-05-07T05:22:23.057Z,2.43
2019-05-07T05:25:12.112Z,2.70
2019-05-07T05:27:42.984Z,2.93
2019-05-07T05:30:18.628Z,2.77
2019-05-07T05:32:48.335Z,2.60
2019-05-07T05:35:18.313Z,2.47
2019-05-07T05:37:48.104Z,2.70
2019-05-07T05:40:18.394Z,2.47
2019-05-07T05:42:54.118Z,23.47
2019-05-07T05:45:38.838Z,15.50
2019-05-07T05:48:08.827Z,3.23
2019-05-07T05:51:02.610Z,2.67
2019-05-07T05:53:37.934Z,5.97
2019-05-07T05:56:13.645Z,11.87
2019-05-07T05:59:05.204Z,5.23
2019-05-07T06:02:02.531Z,12.27
2019-05-07T06:04:47.814Z,4.47
2019-05-07T06:07:28.341Z,4.70
2019-05-07T06:10:06.842Z,7.73
2019-05-07T06:12:44.779Z,2.23
2019-05-07T06:15:33.566Z,2.13
2019-05-07T06:18:21.130Z,1.90
2019-05-07T06:21:02.967Z,2.10
2019-05-07T06:23:37.633Z,2.43
2019-05-07T06:26:07.396Z,2.80
2019-05-07T06:28:37.226Z,3.13
2019-05-07T06:31:06.896Z,2.83
2019-05-07T06:33:36.333Z,2.50
2019-05-07T06:36:05.985Z,2.40
2019-05-07T06:38:42.705Z,4.60
2019-05-07T06:41:23.366Z,4.77
2019-05-07T06:44:02.663Z,2.47
2019-05-07T06:46:32.395Z,1.97
2019-05-07T06:49:02.331Z,1.98
2019-05-07T06:51:32.853Z,1.90
2019-05-07T06:54:02.971Z,1.70
2019-05-07T06:56:32.812Z,5.23
2019-05-07T06:59:26.927Z,3.13
2019-05-07T07:02:22.557Z,2.77
2019-05-07T07:04:56.811Z,3.23
2019-05-07T07:07:37.584Z,1.93
2019-05-07T07:10:24.914Z,4.33
2019-05-07T07:12:54.683Z,10.87
2019-05-07T07:15:24.468Z,3.00
2019-05-07T07:17:54.282Z,3.43
2019-05-07T07:20:23.935Z,2.30
2019-05-07T07:22:53.776Z,2.27
2019-05-07T07:25:23.435Z,1.60
2019-05-07T07:27:52.951Z,3.60
2019-05-07T07:30:29.628Z,1.40
2019-05-07T07:33:02.802Z,1.53
2019-05-07T07:35:32.575Z,1.30
2019-05-07T07:38:22.391Z,1.27
2019-05-07T07:41:02.120Z,1.20
2019-05-07T07:43:32.645Z,2.03
2019-05-07T07:46:02.441Z,1.30
2019-05-07T07:48:32.302Z,1.77
2019-05-07T07:51:03.237Z,1.10
2019-05-07T07:53:35.422Z,0.90
2019-05-07T07:56:23.065Z,1.20
2019-05-07T07:59:03.764Z,0.80
2019-05-07T08:01:42.564Z,1.30
2019-05-07T08:04:12.511Z,1.00
2019-05-07T08:06:42.206Z,1.10
2019-05-07T08:09:12.996Z,1.53
2019-05-07T08:11:43.003Z,1.03
2019-05-07T08:14:12.866Z,1.10
2019-05-07T08:16:43.039Z,0.80
2019-05-07T08:19:21.733Z,1.10
2019-05-07T08:21:46.418Z,1.70
2019-05-07T08:24:16.403Z,0.93
2019-05-07T08:26:46.123Z,1.20
2019-05-07T08:29:15.900Z,1.17
2019-05-07T08:32:02.349Z,1.10
2019-05-07T08:34:39.103Z,0.87
2019-05-07T08:37:08.963Z,1.10
2019-05-07T08:39:38.553Z,1.10
2019-05-07T08:42:08.296Z,1.50
2019-05-07T08:44:44.114Z,1.27
2019-05-07T08:47:32.911Z,1.20
2019-05-07T08:50:02.980Z,1.30
2019-05-07T08:52:32.850Z,0.93
2019-05-07T08:55:02.678Z,0.90
2019-05-07T08:57:32.538Z,0.90
2019-05-07T09:00:04.661Z,0.83
2019-05-07T09:02:33.543Z,1.00
2019-05-07T09:05:03.338Z,2.80
2019-05-07T09:07:33.069Z,1.00
2019-05-07T09:10:02.959Z,3.67
2019-05-07T09:12:32.666Z,1.40
2019-05-07T09:15:02.376Z,1.07
2019-05-07T09:17:32.183Z,1.50
2019-05-07T09:20:02.715Z,1.60
2019-05-07T09:22:32.519Z,1.00
2019-05-07T09:25:03.051Z,1.30
2019-05-07T09:27:38.820Z,1.23
2019-05-07T09:30:28.641Z,1.80
2019-05-07T09:33:13.026Z,1.87
2019-05-07T09:35:46.778Z,1.20
2019-05-07T09:38:16.224Z,1.10
2019-05-07T09:40:46.056Z,1.20
2019-05-07T09:43:15.830Z,1.50
2019-05-07T09:45:45.612Z,1.50
2019-05-07T09:48:15.434Z,1.47
2019-05-07T09:50:44.978Z,1.13
2019-05-07T09:53:14.830Z,1.50
2019-05-07T09:55:44.623Z,1.50
2019-05-07T09:58:14.179Z,1.60
2019-05-07T10:00:43.974Z,1.60
2019-05-07T10:03:13.836Z,1.27
2019-05-07T10:05:43.473Z,1.40
2019-05-07T10:08:13.245Z,1.37
2019-05-07T10:10:44.543Z,1.70
2019-05-07T10:13:24.348Z,1.03
2019-05-07T10:15:54.209Z,1.03
2019-05-07T10:18:23.923Z,0.93
2019-05-07T10:20:53.645Z,1.20
2019-05-07T10:23:23.408Z,1.30
2019-05-07T10:25:56.758Z,1.40
2019-05-07T10:28:26.461Z,1.63
2019-05-07T10:30:55.990Z,1.40
2019-05-07T10:33:25.818Z,1.30
2019-05-07T10:35:55.228Z,1.80
2019-05-07T10:38:25.102Z,1.77
2019-05-07T10:40:54.971Z,2.10
2019-05-07T10:43:24.975Z,2.10
2019-05-07T10:46:13.400Z,1.93
2019-05-07T10:48:55.144Z,2.90
2019-05-07T10:51:25.236Z,1.70
2019-05-07T10:53:54.778Z,1.47
2019-05-07T10:56:24.630Z,1.43
2019-05-07T10:58:54.237Z,1.27
2019-05-07T11:01:32.863Z,1.37
2019-05-07T11:04:02.569Z,1.50
2019-05-07T11:06:32.353Z,1.60
2019-05-07T11:09:01.988Z,1.20
2019-05-07T11:11:31.956Z,1.30
2019-05-07T11:14:02.028Z,1.70
2019-05-07T11:16:36.112Z,1.50
2019-05-07T11:19:06.153Z,1.93
2019-05-07T11:21:35.568Z,1.70
2019-05-07T11:24:05.408Z,2.20
2019-05-07T11:26:35.032Z,1.90
2019-05-07T11:29:04.774Z,1.30
2019-05-07T11:31:34.175Z,1.60
2019-05-07T11:34:04.057Z,1.60
2019-05-07T11:36:34.393Z,1.20
2019-05-07T11:39:05.595Z,1.93
2019-05-07T11:41:45.798Z,1.80
2019-05-07T11:44:19.954Z,1.40
2019-05-07T11:47:26.936Z,2.00
2019-05-07T11:50:25.016Z,1.90
2019-05-07T11:53:00.447Z,2.30
2019-05-07T11:55:29.953Z,2.07
2019-05-07T11:57:59.376Z,2.20
2019-05-07T12:00:37.215Z,1.50
2019-05-07T12:03:07.116Z,2.00
2019-05-07T12:05:36.956Z,2.00
2019-05-07T12:08:06.397Z,1.73
2019-05-07T12:10:36.209Z,1.70
2019-05-07T12:13:06.147Z,1.50
2019-05-07T12:15:35.664Z,1.80
2019-05-07T12:18:05.275Z,2.70
2019-05-07T12:20:34.801Z,2.83
2019-05-07T12:23:04.837Z,2.90
2019-05-07T12:25:34.255Z,3.70
2019-05-07T12:28:03.655Z,3.30
2019-05-07T12:30:55.395Z,3.00
2019-05-07T12:33:44.095Z,4.77
2019-05-07T12:36:14.616Z,4.27
2019-05-07T12:38:44.503Z,3.33
2019-05-07T12:41:34.275Z,3.20
2019-05-07T12:44:06.130Z,2.90
2019-05-07T12:46:36.187Z,3.07
2019-05-07T12:49:06.726Z,2.80
2019-05-07T12:51:42.962Z,2.67
2019-05-07T12:54:29.917Z,2.80
2019-05-07T12:56:59.675Z,2.60
2019-05-07T12:59:29.584Z,2.93
2019-05-07T13:02:33.942Z,3.07
2019-05-07T13:04:49.090Z,3.03
2019-05-07T13:07:36.461Z,2.70
2019-05-07T13:10:08.509Z,3.53
2019-05-07T13:12:37.528Z,3.00
2019-05-07T13:15:20.539Z,3.43
2019-05-07T13:17:39.034Z,3.50
2019-05-07T13:20:08.768Z,3.90
2019-05-07T13:22:38.456Z,3.80
2019-05-07T13:25:08.465Z,3.77
2019-05-07T13:27:40.145Z,4.87
2019-05-07T13:30:11.803Z,4.60
2019-05-07T13:32:44.990Z,4.90
2019-05-07T13:35:15.267Z,7.10
2019-05-07T13:37:51.232Z,7.17
2019-05-07T13:40:31.607Z,10.30
2019-05-07T13:43:14.430Z,5.27
2019-05-07T13:45:54.945Z,5.70
2019-05-07T13:48:25.354Z,6.20
2019-05-07T13:50:54.767Z,6.13
2019-05-07T13:53:25.104Z,5.87
2019-05-07T13:55:54.771Z,4.87
2019-05-07T13:58:24.183Z,5.63
2019-05-07T14:01:24.684Z,7.53
2019-05-07T14:03:54.516Z,7.50
2019-05-07T14:06:39.789Z,5.97
2019-05-07T14:09:23.918Z,5.70
2019-05-07T14:11:52.792Z,6.33
2019-05-07T14:14:22.932Z,5.60
2019-05-07T14:16:53.279Z,6.77
2019-05-07T14:19:22.864Z,6.70
2019-05-07T14:21:52.807Z,7.60
2019-05-07T14:24:22.671Z,6.57
2019-05-07T14:26:52.940Z,7.10
2019-05-07T14:29:24.841Z,5.93
2019-05-07T14:32:04.988Z,6.37
2019-05-07T14:34:38.510Z,6.10
2019-05-07T14:37:24.651Z,6.53
2019-05-07T14:39:54.410Z,7.03
2019-05-07T14:42:32.708Z,7.90
2019-05-07T14:45:01.795Z,10.10
2019-05-07T14:47:31.321Z,9.53
2019-05-07T14:50:02.087Z,10.53
2019-05-07T14:52:33.766Z,9.97
2019-05-07T14:55:05.345Z,11.67
2019-05-07T14:57:35.685Z,11.20
2019-05-07T15:00:05.950Z,10.00
2019-05-07T15:02:35.545Z,12.80
2019-05-07T15:05:05.516Z,10.40
2019-05-07T15:07:35.157Z,15.60
2019-05-07T15:10:05.354Z,12.30
2019-05-07T15:12:34.788Z,14.90
2019-05-07T15:15:04.951Z,12.50
2019-05-07T15:17:59.623Z,13.07
2019-05-07T15:20:29.301Z,11.97
2019-05-07T15:23:06.828Z,15.53
2019-05-07T15:25:36.711Z,12.37
2019-05-07T15:28:06.982Z,19.27
2019-05-07T15:30:49.826Z,13.30
2019-05-07T15:33:19.352Z,9.33
2019-05-07T15:35:48.768Z,10.60
2019-05-07T15:38:18.577Z,11.50
2019-05-07T15:40:48.303Z,11.07
2019-05-07T15:43:18.187Z,9.33
2019-05-07T15:45:47.606Z,11.10
2019-05-07T15:48:17.170Z,11.43
2019-05-07T15:50:46.689Z,9.97
2019-05-07T15:53:21.866Z,9.83
2019-05-07T15:55:52.282Z,11.87
2019-05-07T15:58:22.799Z,12.37
2019-05-07T16:00:52.457Z,12.13
2019-05-07T16:03:28.125Z,10.43
2019-05-07T16:06:03.565Z,14.87
2019-05-07T16:08:34.713Z,17.42
2019-05-07T16:11:04.346Z,12.67
2019-05-07T16:13:36.545Z,11.87
2019-05-07T16:16:05.974Z,13.77
2019-05-07T16:18:42.158Z,12.33
2019-05-07T16:21:12.153Z,11.70
2019-05-07T16:23:41.870Z,12.53
2019-05-07T16:26:12.960Z,11.67
2019-05-07T16:28:42.761Z,17.97
2019-05-07T16:31:12.326Z,13.30
2019-05-07T16:33:43.018Z,12.20
2019-05-07T16:36:12.725Z,12.20
2019-05-07T16:38:42.417Z,11.13
2019-05-07T16:41:13.579Z,11.10
2019-05-07T16:43:43.835Z,11.60
2019-05-07T16:46:13.538Z,13.10
2019-05-07T16:48:43.908Z,11.70
2019-05-07T16:51:13.357Z,11.63
2019-05-07T16:53:43.109Z,11.40
2019-05-07T16:56:12.929Z,11.30
2019-05-07T16:58:46.452Z,11.90
2019-05-07T17:01:16.012Z,11.20
2019-05-07T17:03:51.970Z,12.43
2019-05-07T17:06:24.757Z,12.57
2019-05-07T17:09:13.458Z,11.07
2019-05-07T17:11:43.961Z,11.17
2019-05-07T17:14:13.670Z,12.30
2019-05-07T17:16:43.349Z,11.70
2019-05-07T17:19:14.624Z,11.83
2019-05-07T17:21:44.478Z,10.53
2019-05-07T17:24:14.339Z,10.93
2019-05-07T17:26:43.876Z,11.33
2019-05-07T17:29:13.314Z,11.03
2019-05-07T17:31:43.673Z,10.60
2019-05-07T17:34:13.813Z,10.77
2019-05-07T17:36:44.907Z,9.90
2019-05-07T17:39:15.089Z,10.30
2019-05-07T17:41:45.576Z,9.90
2019-05-07T17:44:15.337Z,10.53
2019-05-07T17:46:46.249Z,12.77
2019-05-07T17:49:16.236Z,14.17
2019-05-07T17:51:46.803Z,19.13
2019-05-07T17:54:16.824Z,23.23
2019-05-07T17:56:46.515Z,11.77
2019-05-07T17:59:15.931Z,9.20
2019-05-07T18:02:01.962Z,10.23
2019-05-07T18:04:46.710Z,9.17
2019-05-07T18:07:04.385Z,9.17
2019-05-07T18:09:34.309Z,9.27
2019-05-07T18:12:04.402Z,8.67
2019-05-07T18:14:33.842Z,9.00
2019-05-07T18:17:12.601Z,9.33
2019-05-07T18:19:43.179Z,9.60
2019-05-07T18:22:12.972Z,9.77
2019-05-07T18:24:42.487Z,10.00
2019-05-07T18:27:17.892Z,9.50
2019-05-07T18:29:47.915Z,9.80
2019-05-07T18:32:17.391Z,11.50
2019-05-07T18:34:46.811Z,21.13
2019-05-07T18:37:19.375Z,22.53
2019-05-07T18:39:48.029Z,12.20
2019-05-07T18:42:17.443Z,10.73
2019-05-07T18:44:46.978Z,9.50
2019-05-07T18:47:16.436Z,8.80
2019-05-07T18:49:46.023Z,9.27
2019-05-07T18:52:15.546Z,8.53
2019-05-07T18:54:47.875Z,8.30
2019-05-07T18:57:16.697Z,9.03
2019-05-07T18:59:46.379Z,9.07
2019-05-07T19:02:16.230Z,8.53
2019-05-07T19:04:45.868Z,8.70
2019-05-07T19:07:15.726Z,8.70
2019-05-07T19:09:47.760Z,8.67
2019-05-07T19:12:17.254Z,8.50
2019-05-07T19:14:46.837Z,9.00
2019-05-07T19:17:16.997Z,8.00
2019-05-07T19:19:47.126Z,8.83
2019-05-07T19:22:17.057Z,9.10
2019-05-07T19:24:48.208Z,8.77
2019-05-07T19:27:17.902Z,9.70
2019-05-07T19:29:47.702Z,9.07
2019-05-07T19:32:17.520Z,9.00
2019-05-07T19:34:47.242Z,9.10
2019-05-07T19:37:16.778Z,9.33
2019-05-07T19:39:46.298Z,9.07
2019-05-07T19:42:15.742Z,9.23
2019-05-07T19:44:45.153Z,9.37
2019-05-07T19:47:14.666Z,9.07
2019-05-07T19:49:44.189Z,9.03
2019-05-07T19:52:13.612Z,9.60
2019-05-07T19:54:57.699Z,8.80
2019-05-07T19:57:21.120Z,9.40
2019-05-07T19:59:52.269Z,9.10
2019-05-07T20:02:26.941Z,9.20
2019-05-07T20:04:55.807Z,8.90
2019-05-07T20:07:25.224Z,8.93
2019-05-07T20:09:54.645Z,9.50
2019-05-07T20:12:24.175Z,9.47
2019-05-07T20:14:53.706Z,8.57
2019-05-07T20:17:23.173Z,8.37
2019-05-07T20:19:52.788Z,8.73
2019-05-07T20:22:22.280Z,8.63
2019-05-07T20:24:52.747Z,8.80
2019-05-07T20:27:23.245Z,8.57
2019-05-07T20:29:52.847Z,8.30
2019-05-07T20:32:22.607Z,8.10
2019-05-07T20:34:52.176Z,8.60
2019-05-07T20:37:22.088Z,8.43
2019-05-07T20:39:52.375Z,9.33
2019-05-07T20:42:23.114Z,8.17
2019-05-07T20:44:53.215Z,8.30
2019-05-07T20:47:22.750Z,8.30
2019-05-07T20:49:52.267Z,9.00
2019-05-07T20:52:22.966Z,9.37
2019-05-07T20:55:30.896Z,9.53
2019-05-07T20:57:58.545Z,8.83
2019-05-07T21:00:29.058Z,9.07
2019-05-07T21:03:16.634Z,9.00
2019-05-07T21:05:46.184Z,9.30
2019-05-07T21:08:15.923Z,9.27
2019-05-07T21:10:45.734Z,9.20
2019-05-07T21:13:27.673Z,9.83
2019-05-07T21:15:46.812Z,10.57
2019-05-07T21:18:16.675Z,10.67
2019-05-07T21:20:46.409Z,10.13
2019-05-07T21:23:16.104Z,10.33
2019-05-07T21:25:46.136Z,10.93
2019-05-07T21:28:16.056Z,11.07
2019-05-07T21:30:45.590Z,11.23
2019-05-07T21:33:15.244Z,11.63
2019-05-07T21:35:44.671Z,11.17
2019-05-07T21:38:14.407Z,9.87
2019-05-07T21:40:44.337Z,11.70
2019-05-07T21:43:14.291Z,10.87
2019-05-07T21:45:44.107Z,11.00
2019-05-07T21:48:13.887Z,10.93
2019-05-07T21:50:43.791Z,11.47
2019-05-07T21:53:27.919Z,11.27
2019-05-07T21:56:13.610Z,11.30
2019-05-07T21:58:49.524Z,11.00
2019-05-07T22:01:32.734Z,10.60
2019-05-07T22:04:02.288Z,11.30
2019-05-07T22:06:31.931Z,11.33
2019-05-07T22:09:01.977Z,11.03
2019-05-07T22:11:32.355Z,11.10
2019-05-07T22:14:02.340Z,11.43
2019-05-07T22:16:32.857Z,11.67
2019-05-07T22:19:02.915Z,12.40
2019-05-07T22:21:34.283Z,12.20
2019-05-07T22:24:04.551Z,11.70
2019-05-07T22:26:34.176Z,11.20
2019-05-07T22:29:04.136Z,11.93
2019-05-07T22:31:53.007Z,12.07
2019-05-07T22:34:59.906Z,12.50
2019-05-07T22:37:29.833Z,12.37
2019-05-07T22:39:59.254Z,12.13
2019-05-07T22:42:29.085Z,11.60
2019-05-07T22:44:58.612Z,12.10
2019-05-07T22:47:28.022Z,11.50
2019-05-07T22:49:57.547Z,12.23
2019-05-07T22:52:27.085Z,11.50
2019-05-07T22:54:56.873Z,12.40
2019-05-07T22:57:44.146Z,11.90
2019-05-07T23:00:22.663Z,12.13
2019-05-07T23:02:53.954Z,11.67
2019-05-07T23:05:23.722Z,11.97
2019-05-07T23:07:53.120Z,11.57
2019-05-07T23:10:22.670Z,11.60
2019-05-07T23:12:52.179Z,10.97
2019-05-07T23:15:22.585Z,12.33
2019-05-07T23:17:52.540Z,12.23
2019-05-07T23:20:24.478Z,12.83
2019-05-07T23:22:53.863Z,11.40
2019-05-07T23:25:24.561Z,11.60
2019-05-07T23:27:54.547Z,11.17
2019-05-07T23:30:24.278Z,11.27
2019-05-07T23:32:54.000Z,11.70
2019-05-07T23:35:23.511Z,11.40
2019-05-07T23:37:53.244Z,10.77
2019-05-07T23:40:43.455Z,11.53
2019-05-07T23:43:16.165Z,11.27
2019-05-07T23:45:45.846Z,12.13
2019-05-07T23:48:15.636Z,10.80
2019-05-07T23:50:45.054Z,12.20
2019-05-07T23:53:14.484Z,11.57
2019-05-07T23:55:44.011Z,11.77
2019-05-07T23:58:14.145Z,11.00
